sensor_id;sensor_type;location;lat;lon;timestamp;pressure;altitude;pressure_sealevel;temperature;humidity
44926;BME280;30662;51.210;7.656;2024-02-04T00:02:08;150583.34;;;7.12;100.00
44926;BME280;30662;51.210;7.656;2024-02-04T00:04:35;150606.06;;;7.21;100.00
44926;BME280;30662;51.210;7.656;2024-02-04T00:07:02;150583.34;;;7.12;100.00
44926;BME280;30662;51.210;7.656;2024-02-04T00:09:28;150578.28;;;7.10;100.00
44926;BME280;30662;51.210;7.656;2024-02-04T00:11:57;150579.56;;;7.10;100.00
44926;BME280;30662;51.210;7.656;2024-02-04T00:14:23;150589.63;;;7.14;100.00
44926;BME280;30662;51.210;7.656;2024-02-04T00:16:50;150582.06;;;7.11;100.00
44926;BME280;30662;51.210;7.656;2024-02-04T00:19:17;150554.28;;;7.00;100.00
44926;BME280;30662;51.210;7.656;2024-02-04T00:21:43;150569.44;;;7.06;100.00
44926;BME280;30662;51.210;7.656;2024-02-04T00:24:10;150573.22;;;7.08;100.00
44926;BME280;30662;51.210;7.656;2024-02-04T00:26:37;150579.56;;;7.10;100.00
44926;BME280;30662;51.210;7.656;2024-02-04T00:29:05;150582.06;;;7.11;100.00
44926;BME280;30662;51.210;7.656;2024-02-04T00:31:32;150575.72;;;7.09;100.00
44926;BME280;30662;51.210;7.656;2024-02-04T00:33:59;150598.50;;;7.18;100.00
44926;BME280;30662;51.210;7.656;2024-02-04T00:36:26;150573.22;;;7.08;100.00
44926;BME280;30662;51.210;7.656;2024-02-04T00:38:52;150584.59;;;7.12;100.00
44926;BME280;30662;51.210;7.656;2024-02-04T00:41:19;150585.84;;;7.13;100.00
44926;BME280;30662;51.210;7.656;2024-02-04T00:43:46;150571.94;;;7.07;100.00
44926;BME280;30662;51.210;7.656;2024-02-04T00:46:14;150579.56;;;7.10;100.00
44926;BME280;30662;51.210;7.656;2024-02-04T00:48:41;150565.66;;;7.05;100.00
44926;BME280;30662;51.210;7.656;2024-02-04T00:51:08;150569.44;;;7.06;100.00
44926;BME280;30662;51.210;7.656;2024-02-04T00:53:34;150582.06;;;7.11;100.00
44926;BME280;30662;51.210;7.656;2024-02-04T00:56:02;150602.28;;;7.19;100.00
44926;BME280;30662;51.210;7.656;2024-02-04T00:58:29;150588.38;;;7.14;100.00
44926;BME280;30662;51.210;7.656;2024-02-04T01:00:55;150580.81;;;7.11;100.00
44926;BME280;30662;51.210;7.656;2024-02-04T01:03:23;150555.53;;;7.01;100.00
44926;BME280;30662;51.210;7.656;2024-02-04T01:05:50;150566.91;;;7.05;100.00
44926;BME280;30662;51.210;7.656;2024-02-04T01:08:17;150575.72;;;7.09;100.00
44926;BME280;30662;51.210;7.656;2024-02-04T01:10:44;150568.19;;;7.06;100.00
44926;BME280;30662;51.210;7.656;2024-02-04T01:13:11;150601.00;;;7.19;100.00
44926;BME280;30662;51.210;7.656;2024-02-04T01:15:39;150589.63;;;7.14;100.00
44926;BME280;30662;51.210;7.656;2024-02-04T01:18:06;150565.66;;;7.05;100.00
44926;BME280;30662;51.210;7.656;2024-02-04T01:20:34;150549.25;;;6.98;100.00
44926;BME280;30662;51.210;7.656;2024-02-04T01:23:01;150578.28;;;7.10;100.00
44926;BME280;30662;51.210;7.656;2024-02-04T01:25:27;150565.66;;;7.05;100.00
44926;BME280;30662;51.210;7.656;2024-02-04T01:27:54;150545.47;;;6.97;100.00
44926;BME280;30662;51.210;7.656;2024-02-04T01:30:21;150560.63;;;7.03;100.00
44926;BME280;30662;51.210;7.656;2024-02-04T01:32:47;150561.88;;;7.03;100.00
44926;BME280;30662;51.210;7.656;2024-02-04T01:35:15;150578.28;;;7.10;100.00
44926;BME280;30662;51.210;7.656;2024-02-04T01:37:43;150577.00;;;7.09;100.00
44926;BME280;30662;51.210;7.656;2024-02-04T01:40:10;150566.91;;;7.05;100.00
44926;BME280;30662;51.210;7.656;2024-02-04T01:42:37;150575.72;;;7.09;100.00
44926;BME280;30662;51.210;7.656;2024-02-04T01:45:04;150588.38;;;7.14;100.00
44926;BME280;30662;51.210;7.656;2024-02-04T01:47:31;150595.97;;;7.17;100.00
44926;BME280;30662;51.210;7.656;2024-02-04T01:49:58;150577.00;;;7.09;100.00
44926;BME280;30662;51.210;7.656;2024-02-04T01:52:26;150578.28;;;7.10;100.00
44926;BME280;30662;51.210;7.656;2024-02-04T01:54:54;150589.63;;;7.14;100.00
44926;BME280;30662;51.210;7.656;2024-02-04T01:57:21;150594.66;;;7.16;100.00
44926;BME280;30662;51.210;7.656;2024-02-04T01:59:49;150587.13;;;7.13;100.00
44926;BME280;30662;51.210;7.656;2024-02-04T02:02:16;150568.19;;;7.06;100.00
44926;BME280;30662;51.210;7.656;2024-02-04T02:04:43;150569.44;;;7.06;100.00
44926;BME280;30662;51.210;7.656;2024-02-04T02:07:10;150574.47;;;7.08;100.00
44926;BME280;30662;51.210;7.656;2024-02-04T02:09:37;150569.44;;;7.06;100.00
44926;BME280;30662;51.210;7.656;2024-02-04T02:12:09;150587.13;;;7.13;100.00
44926;BME280;30662;51.210;7.656;2024-02-04T02:14:42;150585.84;;;7.13;100.00
44926;BME280;30662;51.210;7.656;2024-02-04T02:17:12;150560.63;;;7.03;100.00
44926;BME280;30662;51.210;7.656;2024-02-04T02:19:45;150587.13;;;7.13;100.00
44926;BME280;30662;51.210;7.656;2024-02-04T02:22:25;150563.13;;;7.04;100.00
44926;BME280;30662;51.210;7.656;2024-02-04T02:24:56;150545.47;;;6.97;100.00
44926;BME280;30662;51.210;7.656;2024-02-04T02:27:23;150579.56;;;7.10;100.00
44926;BME280;30662;51.210;7.656;2024-02-04T02:29:50;150564.41;;;7.04;100.00
44926;BME280;30662;51.210;7.656;2024-02-04T02:32:17;150563.13;;;7.04;100.00
44926;BME280;30662;51.210;7.656;2024-02-04T02:34:44;150569.44;;;7.06;100.00
44926;BME280;30662;51.210;7.656;2024-02-04T02:37:22;150575.72;;;7.09;100.00
44926;BME280;30662;51.210;7.656;2024-02-04T02:39:58;150568.19;;;7.06;100.00
44926;BME280;30662;51.210;7.656;2024-02-04T02:42:26;150566.91;;;7.05;100.00
44926;BME280;30662;51.210;7.656;2024-02-04T02:44:54;150560.63;;;7.03;100.00
44926;BME280;30662;51.210;7.656;2024-02-04T02:47:24;150566.91;;;7.05;100.00
44926;BME280;30662;51.210;7.656;2024-02-04T02:49:52;150573.22;;;7.08;100.00
44926;BME280;30662;51.210;7.656;2024-02-04T02:52:20;150563.13;;;7.04;100.00
44926;BME280;30662;51.210;7.656;2024-02-04T02:54:46;150577.00;;;7.09;100.00
44926;BME280;30662;51.210;7.656;2024-02-04T02:57:15;150598.50;;;7.18;100.00
44926;BME280;30662;51.210;7.656;2024-02-04T02:59:41;150575.72;;;7.09;100.00
44926;BME280;30662;51.210;7.656;2024-02-04T03:02:15;150588.38;;;7.14;100.00
44926;BME280;30662;51.210;7.656;2024-02-04T03:04:41;150592.16;;;7.15;100.00
44926;BME280;30662;51.210;7.656;2024-02-04T03:07:08;150592.16;;;7.15;100.00
44926;BME280;30662;51.210;7.656;2024-02-04T03:09:35;150575.72;;;7.09;100.00
44926;BME280;30662;51.210;7.656;2024-02-04T03:12:02;150589.63;;;7.14;100.00
44926;BME280;30662;51.210;7.656;2024-02-04T03:14:31;150587.13;;;7.13;100.00
44926;BME280;30662;51.210;7.656;2024-02-04T03:16:57;150598.50;;;7.18;100.00
44926;BME280;30662;51.210;7.656;2024-02-04T03:19:24;150593.41;;;7.16;100.00
44926;BME280;30662;51.210;7.656;2024-02-04T03:21:51;150598.50;;;7.18;100.00
44926;BME280;30662;51.210;7.656;2024-02-04T03:24:17;150599.75;;;7.18;100.00
44926;BME280;30662;51.210;7.656;2024-02-04T03:26:44;150598.50;;;7.18;100.00
44926;BME280;30662;51.210;7.656;2024-02-04T03:29:11;150612.34;;;7.24;100.00
44926;BME280;30662;51.210;7.656;2024-02-04T03:31:39;150608.56;;;7.22;100.00
44926;BME280;30662;51.210;7.656;2024-02-04T03:34:06;150619.94;;;7.27;100.00
44926;BME280;30662;51.210;7.656;2024-02-04T03:36:33;150611.09;;;7.23;100.00
44926;BME280;30662;51.210;7.656;2024-02-04T03:38:59;150609.81;;;7.23;100.00
44926;BME280;30662;51.210;7.656;2024-02-04T03:41:26;150619.94;;;7.27;100.00
44926;BME280;30662;51.210;7.656;2024-02-04T03:43:52;150622.47;;;7.28;100.00
44926;BME280;30662;51.210;7.656;2024-02-04T03:46:19;150623.72;;;7.28;100.00
44926;BME280;30662;51.210;7.656;2024-02-04T03:48:47;150618.69;;;7.26;100.00
44926;BME280;30662;51.210;7.656;2024-02-04T03:51:15;150623.72;;;7.28;100.00
44926;BME280;30662;51.210;7.656;2024-02-04T03:53:41;150618.69;;;7.26;100.00
44926;BME280;30662;51.210;7.656;2024-02-04T03:56:08;150646.44;;;7.37;100.00
44926;BME280;30662;51.210;7.656;2024-02-04T03:58:35;150625.00;;;7.29;100.00
44926;BME280;30662;51.210;7.656;2024-02-04T04:01:01;150631.28;;;7.31;100.00
44926;BME280;30662;51.210;7.656;2024-02-04T04:03:28;150611.09;;;7.23;100.00
44926;BME280;30662;51.210;7.656;2024-02-04T04:05:57;150622.47;;;7.28;100.00
44926;BME280;30662;51.210;7.656;2024-02-04T04:08:23;150632.59;;;7.32;100.00
44926;BME280;30662;51.210;7.656;2024-02-04T04:10:50;150628.75;;;7.30;100.00
44926;BME280;30662;51.210;7.656;2024-02-04T04:13:17;150637.63;;;7.34;100.00
44926;BME280;30662;51.210;7.656;2024-02-04T04:15:43;150616.16;;;7.25;100.00
44926;BME280;30662;51.210;7.656;2024-02-04T04:18:10;150616.16;;;7.25;100.00
44926;BME280;30662;51.210;7.656;2024-02-04T04:20:37;150635.13;;;7.33;100.00
44926;BME280;30662;51.210;7.656;2024-02-04T04:23:05;150628.75;;;7.30;100.00
44926;BME280;30662;51.210;7.656;2024-02-04T04:25:32;150617.44;;;7.26;100.00
44926;BME280;30662;51.210;7.656;2024-02-04T04:27:58;150616.16;;;7.25;100.00
44926;BME280;30662;51.210;7.656;2024-02-04T04:30:25;150608.56;;;7.22;100.00
44926;BME280;30662;51.210;7.656;2024-02-04T04:32:52;150613.59;;;7.24;100.00
44926;BME280;30662;51.210;7.656;2024-02-04T04:35:19;150602.28;;;7.19;100.00
44926;BME280;30662;51.210;7.656;2024-02-04T04:37:46;150617.44;;;7.26;100.00
44926;BME280;30662;51.210;7.656;2024-02-04T04:40:14;150632.59;;;7.32;100.00
44926;BME280;30662;51.210;7.656;2024-02-04T04:42:41;150617.44;;;7.26;100.00
44926;BME280;30662;51.210;7.656;2024-02-04T04:45:08;150626.25;;;7.29;100.00
44926;BME280;30662;51.210;7.656;2024-02-04T04:47:34;150638.91;;;7.34;100.00
44926;BME280;30662;51.210;7.656;2024-02-04T04:50:01;150604.78;;;7.21;100.00
44926;BME280;30662;51.210;7.656;2024-02-04T04:52:28;150616.16;;;7.25;100.00
44926;BME280;30662;51.210;7.656;2024-02-04T04:54:55;150606.06;;;7.21;100.00
44926;BME280;30662;51.210;7.656;2024-02-04T04:57:23;150607.31;;;7.22;100.00
44926;BME280;30662;51.210;7.656;2024-02-04T04:59:50;150601.00;;;7.19;100.00
44926;BME280;30662;51.210;7.656;2024-02-04T05:02:16;150598.50;;;7.18;100.00
44926;BME280;30662;51.210;7.656;2024-02-04T05:04:43;150640.16;;;7.35;100.00
44926;BME280;30662;51.210;7.656;2024-02-04T05:07:10;150616.16;;;7.25;100.00
44926;BME280;30662;51.210;7.656;2024-02-04T05:09:37;150630.03;;;7.31;100.00
44926;BME280;30662;51.210;7.656;2024-02-04T05:12:04;150619.94;;;7.27;100.00
44926;BME280;30662;51.210;7.656;2024-02-04T05:14:32;150641.41;;;7.35;100.00
44926;BME280;30662;51.210;7.656;2024-02-04T05:16:59;150619.94;;;7.27;100.00
44926;BME280;30662;51.210;7.656;2024-02-04T05:19:26;150621.22;;;7.27;100.00
44926;BME280;30662;51.210;7.656;2024-02-04T05:21:53;150613.59;;;7.24;100.00
44926;BME280;30662;51.210;7.656;2024-02-04T05:24:20;150621.22;;;7.27;100.00
44926;BME280;30662;51.210;7.656;2024-02-04T05:26:47;150614.91;;;7.25;100.00
44926;BME280;30662;51.210;7.656;2024-02-04T05:29:14;150601.00;;;7.19;100.00
44926;BME280;30662;51.210;7.656;2024-02-04T05:31:42;150608.56;;;7.22;100.00
44926;BME280;30662;51.210;7.656;2024-02-04T05:34:09;150621.22;;;7.27;100.00
44926;BME280;30662;51.210;7.656;2024-02-04T05:36:36;150613.59;;;7.24;100.00
44926;BME280;30662;51.210;7.656;2024-02-04T05:39:10;150594.66;;;7.16;100.00
44926;BME280;30662;51.210;7.656;2024-02-04T05:41:36;150602.28;;;7.19;100.00
44926;BME280;30662;51.210;7.656;2024-02-04T05:44:03;150588.38;;;7.14;100.00
44926;BME280;30662;51.210;7.656;2024-02-04T05:46:30;150587.13;;;7.13;100.00
44926;BME280;30662;51.210;7.656;2024-02-04T05:49:02;150611.09;;;7.23;100.00
44926;BME280;30662;51.210;7.656;2024-02-04T05:51:28;150601.00;;;7.19;100.00
44926;BME280;30662;51.210;7.656;2024-02-04T05:53:55;150593.41;;;7.16;100.00
44926;BME280;30662;51.210;7.656;2024-02-04T05:56:22;150601.00;;;7.19;100.00
44926;BME280;30662;51.210;7.656;2024-02-04T05:58:48;150593.41;;;7.16;100.00
44926;BME280;30662;51.210;7.656;2024-02-04T06:01:15;150590.88;;;7.15;100.00
44926;BME280;30662;51.210;7.656;2024-02-04T06:03:42;150588.38;;;7.14;100.00
44926;BME280;30662;51.210;7.656;2024-02-04T06:06:14;150602.28;;;7.19;100.00
44926;BME280;30662;51.210;7.656;2024-02-04T06:08:41;150565.66;;;7.05;100.00
44926;BME280;30662;51.210;7.656;2024-02-04T06:11:09;150558.06;;;7.02;100.00
44926;BME280;30662;51.210;7.656;2024-02-04T06:13:36;150594.66;;;7.16;100.00
44926;BME280;30662;51.210;7.656;2024-02-04T06:16:04;150583.34;;;7.12;100.00
44926;BME280;30662;51.210;7.656;2024-02-04T06:18:31;150592.16;;;7.15;100.00
44926;BME280;30662;51.210;7.656;2024-02-04T06:20:57;150589.63;;;7.14;100.00
44926;BME280;30662;51.210;7.656;2024-02-04T06:23:25;150598.50;;;7.18;100.00
44926;BME280;30662;51.210;7.656;2024-02-04T06:25:52;150599.75;;;7.18;100.00
44926;BME280;30662;51.210;7.656;2024-02-04T06:28:19;150593.41;;;7.16;100.00
44926;BME280;30662;51.210;7.656;2024-02-04T06:30:46;150597.22;;;7.17;100.00
44926;BME280;30662;51.210;7.656;2024-02-04T06:33:13;150590.88;;;7.15;100.00
44926;BME280;30662;51.210;7.656;2024-02-04T06:35:40;150564.41;;;7.04;100.00
44926;BME280;30662;51.210;7.656;2024-02-04T06:38:07;150588.38;;;7.14;100.00
44926;BME280;30662;51.210;7.656;2024-02-04T06:40:35;150592.16;;;7.15;100.00
44926;BME280;30662;51.210;7.656;2024-02-04T06:43:02;150578.28;;;7.10;100.00
44926;BME280;30662;51.210;7.656;2024-02-04T06:45:28;150583.34;;;7.12;100.00
44926;BME280;30662;51.210;7.656;2024-02-04T06:47:55;150579.56;;;7.10;100.00
44926;BME280;30662;51.210;7.656;2024-02-04T06:50:22;150582.06;;;7.11;100.00
44926;BME280;30662;51.210;7.656;2024-02-04T06:52:49;150617.44;;;7.26;100.00
44926;BME280;30662;51.210;7.656;2024-02-04T06:55:15;150589.63;;;7.14;100.00
44926;BME280;30662;51.210;7.656;2024-02-04T06:57:43;150578.28;;;7.10;100.00
44926;BME280;30662;51.210;7.656;2024-02-04T07:00:11;150588.38;;;7.14;100.00
44926;BME280;30662;51.210;7.656;2024-02-04T07:02:38;150582.06;;;7.11;100.00
44926;BME280;30662;51.210;7.656;2024-02-04T07:05:05;150590.88;;;7.15;100.00
44926;BME280;30662;51.210;7.656;2024-02-04T07:07:32;150592.16;;;7.15;100.00
44926;BME280;30662;51.210;7.656;2024-02-04T07:09:59;150609.81;;;7.23;100.00
44926;BME280;30662;51.210;7.656;2024-02-04T07:12:26;150595.97;;;7.17;100.00
44926;BME280;30662;51.210;7.656;2024-02-04T07:14:54;150608.56;;;7.22;100.00
44926;BME280;30662;51.210;7.656;2024-02-04T07:17:21;150593.41;;;7.16;100.00
44926;BME280;30662;51.210;7.656;2024-02-04T07:19:48;150597.22;;;7.17;100.00
44926;BME280;30662;51.210;7.656;2024-02-04T07:22:15;150601.00;;;7.19;100.00
44926;BME280;30662;51.210;7.656;2024-02-04T07:24:41;150599.75;;;7.18;100.00
44926;BME280;30662;51.210;7.656;2024-02-04T07:27:08;150607.31;;;7.22;100.00
44926;BME280;30662;51.210;7.656;2024-02-04T07:29:37;150597.22;;;7.17;100.00
44926;BME280;30662;51.210;7.656;2024-02-04T07:32:05;150592.16;;;7.15;100.00
44926;BME280;30662;51.210;7.656;2024-02-04T07:34:32;150616.16;;;7.25;100.00
44926;BME280;30662;51.210;7.656;2024-02-04T07:36:59;150606.06;;;7.21;100.00
44926;BME280;30662;51.210;7.656;2024-02-04T07:39:26;150608.56;;;7.22;100.00
44926;BME280;30662;51.210;7.656;2024-02-04T07:41:53;150598.50;;;7.18;100.00
44926;BME280;30662;51.210;7.656;2024-02-04T07:44:19;150611.09;;;7.23;100.00
44926;BME280;30662;51.210;7.656;2024-02-04T07:46:46;150632.59;;;7.32;100.00
44926;BME280;30662;51.210;7.656;2024-02-04T07:49:14;150627.50;;;7.30;100.00
44926;BME280;30662;51.210;7.656;2024-02-04T07:51:41;150607.31;;;7.22;100.00
44926;BME280;30662;51.210;7.656;2024-02-04T07:54:08;150614.91;;;7.25;100.00
44926;BME280;30662;51.210;7.656;2024-02-04T07:56:34;150622.47;;;7.28;100.00
44926;BME280;30662;51.210;7.656;2024-02-04T07:59:01;150623.72;;;7.28;100.00
44926;BME280;30662;51.210;7.656;2024-02-04T08:01:28;150643.94;;;7.36;100.00
44926;BME280;30662;51.210;7.656;2024-02-04T08:03:55;150633.84;;;7.32;100.00
44926;BME280;30662;51.210;7.656;2024-02-04T08:06:23;150638.91;;;7.34;100.00
44926;BME280;30662;51.210;7.656;2024-02-04T08:08:50;150640.16;;;7.35;100.00
44926;BME280;30662;51.210;7.656;2024-02-04T08:11:18;150646.44;;;7.37;100.00
44926;BME280;30662;51.210;7.656;2024-02-04T08:13:45;150646.44;;;7.37;100.00
44926;BME280;30662;51.210;7.656;2024-02-04T08:16:12;150659.09;;;7.42;100.00
44926;BME280;30662;51.210;7.656;2024-02-04T08:18:39;150650.28;;;7.39;100.00
44926;BME280;30662;51.210;7.656;2024-02-04T08:21:06;150662.88;;;7.44;100.00
44926;BME280;30662;51.210;7.656;2024-02-04T08:23:34;150654.06;;;7.40;100.00
44926;BME280;30662;51.210;7.656;2024-02-04T08:26:01;150646.44;;;7.37;100.00
44926;BME280;30662;51.210;7.656;2024-02-04T08:28:27;150654.06;;;7.40;100.00
44926;BME280;30662;51.210;7.656;2024-02-04T08:30:54;150662.88;;;7.44;100.00
44926;BME280;30662;51.210;7.656;2024-02-04T08:33:21;150676.78;;;7.50;100.00
44926;BME280;30662;51.210;7.656;2024-02-04T08:35:48;150651.53;;;7.39;100.00
44926;BME280;30662;51.210;7.656;2024-02-04T08:38:15;150669.22;;;7.46;100.00
44926;BME280;30662;51.210;7.656;2024-02-04T08:40:43;150693.19;;;7.56;100.00
44926;BME280;30662;51.210;7.656;2024-02-04T08:43:10;150669.22;;;7.46;100.00
44926;BME280;30662;51.210;7.656;2024-02-04T08:45:37;150683.06;;;7.52;100.00
44926;BME280;30662;51.210;7.656;2024-02-04T08:48:05;150684.34;;;7.53;100.00
44926;BME280;30662;51.210;7.656;2024-02-04T08:50:32;150686.91;;;7.54;100.00
44926;BME280;30662;51.210;7.656;2024-02-04T08:52:58;150678.03;;;7.50;100.00
44926;BME280;30662;51.210;7.656;2024-02-04T08:55:26;150667.97;;;7.46;100.00
44926;BME280;30662;51.210;7.656;2024-02-04T08:57:54;150671.75;;;7.47;100.00
44926;BME280;30662;51.210;7.656;2024-02-04T09:00:21;150688.16;;;7.54;100.00
44926;BME280;30662;51.210;7.656;2024-02-04T09:02:48;150666.66;;;7.45;100.00
44926;BME280;30662;51.210;7.656;2024-02-04T09:05:15;150645.19;;;7.37;100.00
44926;BME280;30662;51.210;7.656;2024-02-04T09:07:42;150666.66;;;7.45;100.00
44926;BME280;30662;51.210;7.656;2024-02-04T09:10:09;150657.84;;;7.42;100.00
44926;BME280;30662;51.210;7.656;2024-02-04T09:12:36;150657.84;;;7.42;100.00
44926;BME280;30662;51.210;7.656;2024-02-04T09:15:05;150659.09;;;7.42;100.00
44926;BME280;30662;51.210;7.656;2024-02-04T09:17:32;150671.75;;;7.47;100.00
44926;BME280;30662;51.210;7.656;2024-02-04T09:19:59;150642.66;;;7.36;100.00
44926;BME280;30662;51.210;7.656;2024-02-04T09:22:26;150661.59;;;7.43;100.00
44926;BME280;30662;51.210;7.656;2024-02-04T09:24:54;150645.19;;;7.37;100.00
44926;BME280;30662;51.210;7.656;2024-02-04T09:27:21;150651.53;;;7.39;100.00
44926;BME280;30662;51.210;7.656;2024-02-04T09:29:48;150647.72;;;7.38;100.00
44926;BME280;30662;51.210;7.656;2024-02-04T09:32:16;150659.09;;;7.42;100.00
44926;BME280;30662;51.210;7.656;2024-02-04T09:34:45;150656.56;;;7.41;100.00
44926;BME280;30662;51.210;7.656;2024-02-04T09:37:12;150659.09;;;7.42;100.00
44926;BME280;30662;51.210;7.656;2024-02-04T09:39:39;150669.22;;;7.46;100.00
44926;BME280;30662;51.210;7.656;2024-02-04T09:42:06;150655.31;;;7.41;100.00
44926;BME280;30662;51.210;7.656;2024-02-04T09:44:34;150654.06;;;7.40;100.00
44926;BME280;30662;51.210;7.656;2024-02-04T09:47:01;150661.59;;;7.43;100.00
44926;BME280;30662;51.210;7.656;2024-02-04T09:49:30;150659.09;;;7.42;100.00
44926;BME280;30662;51.210;7.656;2024-02-04T09:51:59;150638.91;;;7.34;100.00
44926;BME280;30662;51.210;7.656;2024-02-04T09:54:34;150646.44;;;7.37;100.00
44926;BME280;30662;51.210;7.656;2024-02-04T09:57:04;150636.38;;;7.33;100.00
44926;BME280;30662;51.210;7.656;2024-02-04T09:59:31;150626.25;;;7.29;100.00
44926;BME280;30662;51.210;7.656;2024-02-04T10:01:58;150637.63;;;7.34;100.00
44926;BME280;30662;51.210;7.656;2024-02-04T10:04:26;150640.16;;;7.35;100.00
44926;BME280;30662;51.210;7.656;2024-02-04T10:06:54;150643.94;;;7.36;100.00
44926;BME280;30662;51.210;7.656;2024-02-04T10:09:22;150645.19;;;7.37;100.00
44926;BME280;30662;51.210;7.656;2024-02-04T10:11:48;150638.91;;;7.34;100.00
44926;BME280;30662;51.210;7.656;2024-02-04T10:14:15;150654.06;;;7.40;100.00
44926;BME280;30662;51.210;7.656;2024-02-04T10:16:44;150665.38;;;7.45;100.00
44926;BME280;30662;51.210;7.656;2024-02-04T10:19:11;150648.97;;;7.38;100.00
44926;BME280;30662;51.210;7.656;2024-02-04T10:21:38;150651.53;;;7.39;100.00
44926;BME280;30662;51.210;7.656;2024-02-04T10:24:07;150630.03;;;7.31;100.00
44926;BME280;30662;51.210;7.656;2024-02-04T10:26:34;150633.84;;;7.32;100.00
44926;BME280;30662;51.210;7.656;2024-02-04T10:29:01;150645.19;;;7.37;100.00
44926;BME280;30662;51.210;7.656;2024-02-04T10:31:28;150660.34;;;7.43;100.00
44926;BME280;30662;51.210;7.656;2024-02-04T10:33:55;150674.25;;;7.49;100.00
44926;BME280;30662;51.210;7.656;2024-02-04T10:36:22;150656.56;;;7.41;100.00
44926;BME280;30662;51.210;7.656;2024-02-04T10:38:49;150651.53;;;7.39;100.00
44926;BME280;30662;51.210;7.656;2024-02-04T10:41:18;150651.53;;;7.39;100.00
44926;BME280;30662;51.210;7.656;2024-02-04T10:43:45;150681.81;;;7.52;100.00
44926;BME280;30662;51.210;7.656;2024-02-04T10:46:13;150669.22;;;7.46;100.00
44926;BME280;30662;51.210;7.656;2024-02-04T10:48:42;150680.56;;;7.51;100.00
44926;BME280;30662;51.210;7.656;2024-02-04T10:51:14;150679.28;;;7.51;100.00
44926;BME280;30662;51.210;7.656;2024-02-04T10:53:41;150707.09;;;7.62;100.00
44926;BME280;30662;51.210;7.656;2024-02-04T10:56:13;150714.66;;;7.65;100.00
44926;BME280;30662;51.210;7.656;2024-02-04T10:58:42;150696.97;;;7.58;100.00
44926;BME280;30662;51.210;7.656;2024-02-04T11:01:10;150685.59;;;7.53;100.00
44926;BME280;30662;51.210;7.656;2024-02-04T11:03:39;150718.44;;;7.66;100.00
44926;BME280;30662;51.210;7.656;2024-02-04T11:06:07;150690.69;;;7.55;100.00
44926;BME280;30662;51.210;7.656;2024-02-04T11:08:34;150695.72;;;7.57;100.00
44926;BME280;30662;51.210;7.656;2024-02-04T11:11:01;150703.28;;;7.60;100.00
44926;BME280;30662;51.210;7.656;2024-02-04T11:13:28;150707.09;;;7.62;100.00
44926;BME280;30662;51.210;7.656;2024-02-04T11:15:57;150732.34;;;7.72;100.00
44926;BME280;30662;51.210;7.656;2024-02-04T11:18:34;150731.09;;;7.71;100.00
44926;BME280;30662;51.210;7.656;2024-02-04T11:21:31;150727.31;;;7.70;100.00
44926;BME280;30662;51.210;7.656;2024-02-04T11:24:12;150702.03;;;7.60;100.00
44926;BME280;30662;51.210;7.656;2024-02-04T11:26:43;150699.50;;;7.59;100.00
44926;BME280;30662;51.210;7.656;2024-02-04T11:29:10;150717.19;;;7.66;100.00
44926;BME280;30662;51.210;7.656;2024-02-04T11:31:39;150729.81;;;7.71;100.00
44926;BME280;30662;51.210;7.656;2024-02-04T11:34:08;150704.59;;;7.61;100.00
44926;BME280;30662;51.210;7.656;2024-02-04T11:36:38;150705.84;;;7.61;100.00
44926;BME280;30662;51.210;7.656;2024-02-04T11:39:11;150689.41;;;7.55;100.00
44926;BME280;30662;51.210;7.656;2024-02-04T11:41:44;150690.69;;;7.55;100.00
44926;BME280;30662;51.210;7.656;2024-02-04T11:44:11;150678.03;;;7.50;100.00
44926;BME280;30662;51.210;7.656;2024-02-04T11:46:45;150734.88;;;7.73;100.00
44926;BME280;30662;51.210;7.656;2024-02-04T11:49:14;150742.47;;;7.76;100.00
44926;BME280;30662;51.210;7.656;2024-02-04T11:51:45;150691.94;;;7.56;100.00
44926;BME280;30662;51.210;7.656;2024-02-04T11:54:12;150717.19;;;7.66;100.00
44926;BME280;30662;51.210;7.656;2024-02-04T11:56:38;150707.09;;;7.62;100.00
44926;BME280;30662;51.210;7.656;2024-02-04T11:59:06;150717.19;;;7.66;100.00
44926;BME280;30662;51.210;7.656;2024-02-04T12:01:34;150705.84;;;7.61;100.00
44926;BME280;30662;51.210;7.656;2024-02-04T12:04:10;150731.09;;;7.71;100.00
44926;BME280;30662;51.210;7.656;2024-02-04T12:06:38;150718.44;;;7.66;100.00
44926;BME280;30662;51.210;7.656;2024-02-04T12:09:05;150704.59;;;7.61;100.00
44926;BME280;30662;51.210;7.656;2024-02-04T12:11:34;150724.78;;;7.69;100.00
44926;BME280;30662;51.210;7.656;2024-02-04T12:14:03;150718.44;;;7.66;100.00
44926;BME280;30662;51.210;7.656;2024-02-04T12:16:30;150712.16;;;7.64;100.00
44926;BME280;30662;51.210;7.656;2024-02-04T12:18:56;150714.66;;;7.65;100.00
44926;BME280;30662;51.210;7.656;2024-02-04T12:21:25;150728.56;;;7.70;100.00
44926;BME280;30662;51.210;7.656;2024-02-04T12:23:52;150722.28;;;7.68;100.00
44926;BME280;30662;51.210;7.656;2024-02-04T12:26:18;150734.88;;;7.73;100.00
44926;BME280;30662;51.210;7.656;2024-02-04T12:28:45;150707.09;;;7.62;100.00
44926;BME280;30662;51.210;7.656;2024-02-04T12:31:19;150714.66;;;7.65;100.00
44926;BME280;30662;51.210;7.656;2024-02-04T12:33:53;150710.88;;;7.63;100.00
44926;BME280;30662;51.210;7.656;2024-02-04T12:36:20;150724.78;;;7.69;100.00
44926;BME280;30662;51.210;7.656;2024-02-04T12:38:52;150713.41;;;7.64;100.00
44926;BME280;30662;51.210;7.656;2024-02-04T12:41:19;150709.63;;;7.63;100.00
44926;BME280;30662;51.210;7.656;2024-02-04T12:43:49;150714.66;;;7.65;100.00
44926;BME280;30662;51.210;7.656;2024-02-04T12:46:16;150732.34;;;7.72;100.00
44926;BME280;30662;51.210;7.656;2024-02-04T12:48:43;150715.94;;;7.65;100.00
44926;BME280;30662;51.210;7.656;2024-02-04T12:51:10;150693.19;;;7.56;100.00
44926;BME280;30662;51.210;7.656;2024-02-04T12:53:37;150704.59;;;7.61;100.00